sensor_id;sensor_type;location;lat;lon;timestamp;P1;durP1;ratioP1;P2;durP2;ratioP2
46675;SDS011;32412;51.478;5.694;2022-09-09T00:01:15;3.15;;;2.58;;
46675;SDS011;32412;51.478;5.694;2022-09-09T00:09:47;3.45;;;2.85;;
46675;SDS011;32412;51.478;5.694;2022-09-09T00:12:37;5.18;;;2.50;;
46675;SDS011;32412;51.478;5.694;2022-09-09T00:15:16;3.90;;;2.97;;
46675;SDS011;32412;51.478;5.694;2022-09-09T00:20:32;3.95;;;2.67;;
46675;SDS011;32412;51.478;5.694;2022-09-09T00:23:11;4.97;;;2.85;;
46675;SDS011;32412;51.478;5.694;2022-09-09T00:25:58;8.57;;;3.38;;
46675;SDS011;32412;51.478;5.694;2022-09-09T00:28:38;3.75;;;3.40;;
46675;SDS011;32412;51.478;5.694;2022-09-09T00:31:14;6.45;;;4.00;;
46675;SDS011;32412;51.478;5.694;2022-09-09T00:33:45;5.53;;;3.38;;
46675;SDS011;32412;51.478;5.694;2022-09-09T00:36:14;4.10;;;3.13;;
46675;SDS011;32412;51.478;5.694;2022-09-09T00:38:47;7.50;;;3.30;;
46675;SDS011;32412;51.478;5.694;2022-09-09T00:47:09;6.22;;;3.03;;
46675;SDS011;32412;51.478;5.694;2022-09-09T00:50:29;7.25;;;2.97;;
46675;SDS011;32412;51.478;5.694;2022-09-09T00:55:38;5.50;;;2.63;;
46675;SDS011;32412;51.478;5.694;2022-09-09T00:58:06;5.75;;;2.55;;
46675;SDS011;32412;51.478;5.694;2022-09-09T01:00:52;4.70;;;2.45;;
46675;SDS011;32412;51.478;5.694;2022-09-09T01:06:11;6.85;;;2.40;;
46675;SDS011;32412;51.478;5.694;2022-09-09T01:19:57;8.15;;;3.17;;
46675;SDS011;32412;51.478;5.694;2022-09-09T01:28:43;6.05;;;3.33;;
46675;SDS011;32412;51.478;5.694;2022-09-09T01:31:11;9.50;;;3.83;;
46675;SDS011;32412;51.478;5.694;2022-09-09T01:33:42;6.82;;;4.20;;
46675;SDS011;32412;51.478;5.694;2022-09-09T01:36:09;6.05;;;3.47;;
46675;SDS011;32412;51.478;5.694;2022-09-09T01:38:38;7.97;;;4.18;;
46675;SDS011;32412;51.478;5.694;2022-09-09T01:41:05;6.10;;;3.80;;
46675;SDS011;32412;51.478;5.694;2022-09-09T01:43:31;6.32;;;4.13;;
46675;SDS011;32412;51.478;5.694;2022-09-09T01:45:58;7.55;;;3.92;;
46675;SDS011;32412;51.478;5.694;2022-09-09T01:48:25;7.25;;;4.00;;
46675;SDS011;32412;51.478;5.694;2022-09-09T01:50:52;7.85;;;4.07;;
46675;SDS011;32412;51.478;5.694;2022-09-09T01:53:18;5.10;;;3.80;;
46675;SDS011;32412;51.478;5.694;2022-09-09T01:55:48;5.90;;;4.18;;
46675;SDS011;32412;51.478;5.694;2022-09-09T02:00:59;6.82;;;4.82;;
46675;SDS011;32412;51.478;5.694;2022-09-09T02:03:34;14.95;;;5.43;;
46675;SDS011;32412;51.478;5.694;2022-09-09T02:08:36;9.82;;;5.20;;
46675;SDS011;32412;51.478;5.694;2022-09-09T02:11:13;7.38;;;4.88;;
46675;SDS011;32412;51.478;5.694;2022-09-09T02:13:47;8.50;;;4.57;;
46675;SDS011;32412;51.478;5.694;2022-09-09T02:21:31;6.53;;;4.80;;
46675;SDS011;32412;51.478;5.694;2022-09-09T02:24:00;10.23;;;4.85;;
46675;SDS011;32412;51.478;5.694;2022-09-09T02:26:29;7.80;;;4.85;;
46675;SDS011;32412;51.478;5.694;2022-09-09T02:28:57;12.90;;;5.05;;
46675;SDS011;32412;51.478;5.694;2022-09-09T02:31:26;10.23;;;5.32;;
46675;SDS011;32412;51.478;5.694;2022-09-09T02:33:59;13.20;;;5.47;;
46675;SDS011;32412;51.478;5.694;2022-09-09T02:36:29;7.35;;;4.40;;
46675;SDS011;32412;51.478;5.694;2022-09-09T02:38:58;8.68;;;4.57;;
46675;SDS011;32412;51.478;5.694;2022-09-09T02:41:27;9.80;;;4.82;;
46675;SDS011;32412;51.478;5.694;2022-09-09T02:44:01;6.32;;;4.57;;
46675;SDS011;32412;51.478;5.694;2022-09-09T02:52:08;11.63;;;5.10;;
46675;SDS011;32412;51.478;5.694;2022-09-09T02:54:41;8.90;;;4.85;;
46675;SDS011;32412;51.478;5.694;2022-09-09T02:59:43;12.35;;;4.65;;
46675;SDS011;32412;51.478;5.694;2022-09-09T03:02:09;9.80;;;4.18;;
46675;SDS011;32412;51.478;5.694;2022-09-09T03:04:36;6.32;;;4.00;;
46675;SDS011;32412;51.478;5.694;2022-09-09T03:07:02;10.07;;;4.68;;
46675;SDS011;32412;51.478;5.694;2022-09-09T03:09:28;12.75;;;5.15;;
46675;SDS011;32412;51.478;5.694;2022-09-09T03:11:56;8.95;;;4.13;;
46675;SDS011;32412;51.478;5.694;2022-09-09T03:14:22;9.35;;;3.72;;
46675;SDS011;32412;51.478;5.694;2022-09-09T03:16:53;9.68;;;4.20;;
46675;SDS011;32412;51.478;5.694;2022-09-09T03:19:19;9.40;;;4.10;;
46675;SDS011;32412;51.478;5.694;2022-09-09T03:21:46;5.82;;;4.50;;
46675;SDS011;32412;51.478;5.694;2022-09-09T03:24:12;8.40;;;4.57;;
46675;SDS011;32412;51.478;5.694;2022-09-09T03:26:39;9.68;;;4.55;;
46675;SDS011;32412;51.478;5.694;2022-09-09T03:29:05;10.75;;;5.00;;
46675;SDS011;32412;51.478;5.694;2022-09-09T03:31:32;9.60;;;4.82;;
46675;SDS011;32412;51.478;5.694;2022-09-09T03:33:58;9.23;;;4.60;;
46675;SDS011;32412;51.478;5.694;2022-09-09T03:36:25;10.93;;;4.30;;
46675;SDS011;32412;51.478;5.694;2022-09-09T03:38:52;6.35;;;4.38;;
46675;SDS011;32412;51.478;5.694;2022-09-09T03:41:19;9.07;;;4.20;;
46675;SDS011;32412;51.478;5.694;2022-09-09T03:43:47;9.93;;;4.00;;
46675;SDS011;32412;51.478;5.694;2022-09-09T03:46:12;11.00;;;4.75;;
46675;SDS011;32412;51.478;5.694;2022-09-09T03:48:38;7.72;;;4.55;;
46675;SDS011;32412;51.478;5.694;2022-09-09T03:51:03;8.18;;;4.30;;
46675;SDS011;32412;51.478;5.694;2022-09-09T03:53:29;6.93;;;3.95;;
46675;SDS011;32412;51.478;5.694;2022-09-09T03:55:56;7.78;;;4.72;;
46675;SDS011;32412;51.478;5.694;2022-09-09T03:58:24;7.03;;;4.13;;
46675;SDS011;32412;51.478;5.694;2022-09-09T04:03:21;5.88;;;4.30;;
46675;SDS011;32412;51.478;5.694;2022-09-09T04:05:49;12.95;;;4.53;;
46675;SDS011;32412;51.478;5.694;2022-09-09T04:08:16;12.00;;;4.05;;
46675;SDS011;32412;51.478;5.694;2022-09-09T04:10:44;11.75;;;4.30;;
46675;SDS011;32412;51.478;5.694;2022-09-09T04:13:15;7.07;;;3.80;;
46675;SDS011;32412;51.478;5.694;2022-09-09T04:15:43;8.60;;;4.75;;
46675;SDS011;32412;51.478;5.694;2022-09-09T04:18:10;8.80;;;4.05;;
46675;SDS011;32412;51.478;5.694;2022-09-09T04:20:36;10.35;;;4.20;;
46675;SDS011;32412;51.478;5.694;2022-09-09T04:23:03;8.55;;;3.90;;
46675;SDS011;32412;51.478;5.694;2022-09-09T04:25:30;10.80;;;4.30;;
46675;SDS011;32412;51.478;5.694;2022-09-09T04:27:56;10.15;;;4.10;;
46675;SDS011;32412;51.478;5.694;2022-09-09T04:30:23;8.60;;;3.90;;
46675;SDS011;32412;51.478;5.694;2022-09-09T04:32:50;10.05;;;4.18;;
46675;SDS011;32412;51.478;5.694;2022-09-09T04:35:16;11.52;;;4.07;;
46675;SDS011;32412;51.478;5.694;2022-09-09T04:37:42;11.18;;;4.30;;
46675;SDS011;32412;51.478;5.694;2022-09-09T04:40:10;9.48;;;3.97;;
46675;SDS011;32412;51.478;5.694;2022-09-09T04:42:37;9.10;;;4.15;;
46675;SDS011;32412;51.478;5.694;2022-09-09T04:45:03;9.68;;;4.28;;
46675;SDS011;32412;51.478;5.694;2022-09-09T04:47:32;13.60;;;4.18;;
46675;SDS011;32412;51.478;5.694;2022-09-09T04:49:59;11.45;;;3.90;;
46675;SDS011;32412;51.478;5.694;2022-09-09T04:52:25;16.33;;;4.20;;
46675;SDS011;32412;51.478;5.694;2022-09-09T04:54:54;10.00;;;4.55;;
46675;SDS011;32412;51.478;5.694;2022-09-09T04:57:20;12.93;;;4.05;;
46675;SDS011;32412;51.478;5.694;2022-09-09T04:59:46;12.63;;;4.03;;
46675;SDS011;32412;51.478;5.694;2022-09-09T05:02:11;8.32;;;4.03;;
46675;SDS011;32412;51.478;5.694;2022-09-09T05:04:37;15.68;;;4.50;;
46675;SDS011;32412;51.478;5.694;2022-09-09T05:07:03;10.23;;;4.28;;
46675;SDS011;32412;51.478;5.694;2022-09-09T05:09:28;11.13;;;4.40;;
46675;SDS011;32412;51.478;5.694;2022-09-09T05:11:55;12.38;;;3.90;;
46675;SDS011;32412;51.478;5.694;2022-09-09T05:14:20;18.77;;;3.92;;
46675;SDS011;32412;51.478;5.694;2022-09-09T05:16:47;11.25;;;4.05;;
46675;SDS011;32412;51.478;5.694;2022-09-09T05:19:14;13.52;;;3.80;;
46675;SDS011;32412;51.478;5.694;2022-09-09T05:21:40;14.60;;;4.07;;
46675;SDS011;32412;51.478;5.694;2022-09-09T05:24:09;11.38;;;4.20;;
46675;SDS011;32412;51.478;5.694;2022-09-09T05:26:35;13.45;;;4.40;;
46675;SDS011;32412;51.478;5.694;2022-09-09T05:29:01;8.25;;;4.15;;
46675;SDS011;32412;51.478;5.694;2022-09-09T05:31:29;9.65;;;3.45;;
46675;SDS011;32412;51.478;5.694;2022-09-09T05:33:55;10.88;;;3.97;;
46675;SDS011;32412;51.478;5.694;2022-09-09T05:36:21;12.45;;;4.03;;
46675;SDS011;32412;51.478;5.694;2022-09-09T05:38:48;11.15;;;3.80;;
46675;SDS011;32412;51.478;5.694;2022-09-09T05:41:15;7.30;;;3.97;;
46675;SDS011;32412;51.478;5.694;2022-09-09T05:43:42;12.65;;;4.10;;
46675;SDS011;32412;51.478;5.694;2022-09-09T05:48:43;11.38;;;3.95;;
46675;SDS011;32412;51.478;5.694;2022-09-09T05:51:16;12.02;;;3.72;;
46675;SDS011;32412;51.478;5.694;2022-09-09T05:53:44;14.23;;;3.80;;
46675;SDS011;32412;51.478;5.694;2022-09-09T05:56:12;16.50;;;4.20;;
46675;SDS011;32412;51.478;5.694;2022-09-09T05:58:39;9.35;;;4.28;;
46675;SDS011;32412;51.478;5.694;2022-09-09T06:01:13;11.63;;;4.20;;
46675;SDS011;32412;51.478;5.694;2022-09-09T06:03:41;9.98;;;4.50;;
46675;SDS011;32412;51.478;5.694;2022-09-09T06:06:08;15.73;;;4.20;;
46675;SDS011;32412;51.478;5.694;2022-09-09T06:08:40;8.18;;;4.10;;
46675;SDS011;32412;51.478;5.694;2022-09-09T06:11:18;11.85;;;4.22;;
46675;SDS011;32412;51.478;5.694;2022-09-09T06:13:46;10.27;;;4.10;;
46675;SDS011;32412;51.478;5.694;2022-09-09T06:16:13;14.38;;;3.97;;
46675;SDS011;32412;51.478;5.694;2022-09-09T06:18:41;13.38;;;3.97;;
46675;SDS011;32412;51.478;5.694;2022-09-09T06:23:44;14.63;;;4.30;;
46675;SDS011;32412;51.478;5.694;2022-09-09T06:26:12;9.05;;;3.97;;
46675;SDS011;32412;51.478;5.694;2022-09-09T06:28:39;13.63;;;3.97;;
46675;SDS011;32412;51.478;5.694;2022-09-09T06:31:05;10.77;;;3.55;;
46675;SDS011;32412;51.478;5.694;2022-09-09T06:33:33;9.07;;;3.70;;
46675;SDS011;32412;51.478;5.694;2022-09-09T06:36:01;11.50;;;3.65;;
46675;SDS011;32412;51.478;5.694;2022-09-09T06:38:28;9.45;;;3.15;;
46675;SDS011;32412;51.478;5.694;2022-09-09T06:40:55;8.35;;;3.30;;
46675;SDS011;32412;51.478;5.694;2022-09-09T06:43:23;23.20;;;4.60;;
46675;SDS011;32412;51.478;5.694;2022-09-09T06:45:56;10.00;;;3.60;;
46675;SDS011;32412;51.478;5.694;2022-09-09T06:50:51;11.88;;;3.45;;
46675;SDS011;32412;51.478;5.694;2022-09-09T06:53:27;12.27;;;3.42;;
46675;SDS011;32412;51.478;5.694;2022-09-09T06:55:52;12.35;;;3.30;;
46675;SDS011;32412;51.478;5.694;2022-09-09T06:58:18;13.32;;;4.03;;
46675;SDS011;32412;51.478;5.694;2022-09-09T07:00:44;10.30;;;3.22;;
46675;SDS011;32412;51.478;5.694;2022-09-09T07:03:09;10.30;;;3.28;;
46675;SDS011;32412;51.478;5.694;2022-09-09T07:05:35;12.38;;;4.05;;
46675;SDS011;32412;51.478;5.694;2022-09-09T07:08:02;11.52;;;3.33;;
46675;SDS011;32412;51.478;5.694;2022-09-09T07:10:28;10.27;;;3.17;;
46675;SDS011;32412;51.478;5.694;2022-09-09T07:12:53;14.93;;;3.20;;
46675;SDS011;32412;51.478;5.694;2022-09-09T07:15:21;12.55;;;4.25;;
46675;SDS011;32412;51.478;5.694;2022-09-09T07:17:47;12.65;;;3.42;;
46675;SDS011;32412;51.478;5.694;2022-09-09T07:20:13;13.60;;;3.20;;
46675;SDS011;32412;51.478;5.694;2022-09-09T07:22:40;7.60;;;2.70;;
46675;SDS011;32412;51.478;5.694;2022-09-09T07:25:06;9.82;;;3.53;;
46675;SDS011;32412;51.478;5.694;2022-09-09T07:27:32;10.30;;;2.38;;
46675;SDS011;32412;51.478;5.694;2022-09-09T07:29:58;9.45;;;2.38;;
46675;SDS011;32412;51.478;5.694;2022-09-09T07:32:24;8.50;;;2.13;;
46675;SDS011;32412;51.478;5.694;2022-09-09T07:34:50;7.30;;;2.05;;
46675;SDS011;32412;51.478;5.694;2022-09-09T07:37:16;7.07;;;2.20;;
46675;SDS011;32412;51.478;5.694;2022-09-09T07:39:42;8.90;;;2.45;;
46675;SDS011;32412;51.478;5.694;2022-09-09T07:42:08;6.28;;;1.80;;
46675;SDS011;32412;51.478;5.694;2022-09-09T07:44:36;5.28;;;1.80;;
46675;SDS011;32412;51.478;5.694;2022-09-09T07:47:04;6.30;;;1.90;;
46675;SDS011;32412;51.478;5.694;2022-09-09T07:49:30;9.70;;;2.88;;
46675;SDS011;32412;51.478;5.694;2022-09-09T07:51:57;10.55;;;2.47;;
46675;SDS011;32412;51.478;5.694;2022-09-09T07:54:23;10.20;;;2.10;;
46675;SDS011;32412;51.478;5.694;2022-09-09T07:56:50;13.52;;;2.80;;
46675;SDS011;32412;51.478;5.694;2022-09-09T07:59:15;8.57;;;1.98;;
46675;SDS011;32412;51.478;5.694;2022-09-09T08:01:43;8.30;;;1.85;;
46675;SDS011;32412;51.478;5.694;2022-09-09T08:04:20;6.18;;;1.63;;
46675;SDS011;32412;51.478;5.694;2022-09-09T08:06:56;8.02;;;2.60;;
46675;SDS011;32412;51.478;5.694;2022-09-09T08:09:24;8.20;;;1.85;;
46675;SDS011;32412;51.478;5.694;2022-09-09T08:11:53;7.18;;;2.00;;
46675;SDS011;32412;51.478;5.694;2022-09-09T08:14:21;9.70;;;2.03;;
46675;SDS011;32412;51.478;5.694;2022-09-09T08:16:48;9.75;;;1.95;;
46675;SDS011;32412;51.478;5.694;2022-09-09T08:19:15;7.72;;;1.70;;
46675;SDS011;32412;51.478;5.694;2022-09-09T08:21:42;4.85;;;2.15;;
46675;SDS011;32412;51.478;5.694;2022-09-09T08:24:09;10.30;;;2.10;;
46675;SDS011;32412;51.478;5.694;2022-09-09T08:26:37;8.43;;;2.10;;
46675;SDS011;32412;51.478;5.694;2022-09-09T08:29:05;9.38;;;1.73;;
46675;SDS011;32412;51.478;5.694;2022-09-09T08:33:59;6.25;;;1.58;;
46675;SDS011;32412;51.478;5.694;2022-09-09T08:36:26;5.50;;;1.60;;
46675;SDS011;32412;51.478;5.694;2022-09-09T08:38:55;8.75;;;1.65;;
46675;SDS011;32412;51.478;5.694;2022-09-09T08:44:28;4.63;;;1.65;;
46675;SDS011;32412;51.478;5.694;2022-09-09T08:47:07;7.25;;;1.85;;
46675;SDS011;32412;51.478;5.694;2022-09-09T08:55:48;9.55;;;1.60;;
46675;SDS011;32412;51.478;5.694;2022-09-09T08:57:51;11.60;;;3.72;;
46675;SDS011;32412;51.478;5.694;2022-09-09T09:00:19;11.43;;;1.60;;
46675;SDS011;32412;51.478;5.694;2022-09-09T09:05:44;10.07;;;1.90;;
46675;SDS011;32412;51.478;5.694;2022-09-09T09:13:15;4.53;;;1.60;;
46675;SDS011;32412;51.478;5.694;2022-09-09T09:15:50;7.25;;;1.75;;
46675;SDS011;32412;51.478;5.694;2022-09-09T09:18:21;9.18;;;2.03;;
46675;SDS011;32412;51.478;5.694;2022-09-09T09:21:07;6.80;;;1.55;;
46675;SDS011;32412;51.478;5.694;2022-09-09T09:23:45;7.75;;;2.25;;
46675;SDS011;32412;51.478;5.694;2022-09-09T09:26:25;4.55;;;1.27;;
46675;SDS011;32412;51.478;5.694;2022-09-09T09:29:04;8.63;;;1.50;;
46675;SDS011;32412;51.478;5.694;2022-09-09T09:31:37;9.93;;;1.58;;
46675;SDS011;32412;51.478;5.694;2022-09-09T09:34:10;8.45;;;1.77;;
46675;SDS011;32412;51.478;5.694;2022-09-09T09:36:41;7.47;;;1.80;;
46675;SDS011;32412;51.478;5.694;2022-09-09T09:39:21;6.68;;;1.70;;
46675;SDS011;32412;51.478;5.694;2022-09-09T09:42:07;7.00;;;1.50;;
46675;SDS011;32412;51.478;5.694;2022-09-09T09:44:39;10.52;;;4.10;;
46675;SDS011;32412;51.478;5.694;2022-09-09T09:47:10;6.05;;;1.52;;
46675;SDS011;32412;51.478;5.694;2022-09-09T09:49:50;6.90;;;1.45;;
46675;SDS011;32412;51.478;5.694;2022-09-09T09:52:26;9.18;;;1.85;;
46675;SDS011;32412;51.478;5.694;2022-09-09T09:54:56;5.25;;;1.30;;
46675;SDS011;32412;51.478;5.694;2022-09-09T09:57:26;7.20;;;1.52;;
46675;SDS011;32412;51.478;5.694;2022-09-09T10:00:01;7.18;;;2.35;;
46675;SDS011;32412;51.478;5.694;2022-09-09T10:02:37;8.85;;;1.70;;
46675;SDS011;32412;51.478;5.694;2022-09-09T10:07:37;9.77;;;1.63;;
46675;SDS011;32412;51.478;5.694;2022-09-09T10:10:04;7.68;;;1.67;;
46675;SDS011;32412;51.478;5.694;2022-09-09T10:18:47;9.00;;;2.05;;
46675;SDS011;32412;51.478;5.694;2022-09-09T10:30:05;21.38;;;10.52;;
46675;SDS011;32412;51.478;5.694;2022-09-09T10:32:46;4.72;;;1.52;;
46675;SDS011;32412;51.478;5.694;2022-09-09T10:35:31;5.70;;;1.42;;
46675;SDS011;32412;51.478;5.694;2022-09-09T10:38:14;6.15;;;1.55;;
46675;SDS011;32412;51.478;5.694;2022-09-09T10:48:50;10.55;;;2.15;;
46675;SDS011;32412;51.478;5.694;2022-09-09T10:54:19;5.22;;;2.03;;
46675;SDS011;32412;51.478;5.694;2022-09-09T10:57:17;13.85;;;2.67;;
46675;SDS011;32412;51.478;5.694;2022-09-09T10:59:57;6.13;;;2.47;;
46675;SDS011;32412;51.478;5.694;2022-09-09T11:02:27;7.90;;;2.65;;
46675;SDS011;32412;51.478;5.694;2022-09-09T11:05:03;7.32;;;3.20;;
46675;SDS011;32412;51.478;5.694;2022-09-09T11:10:23;10.88;;;3.13;;
46675;SDS011;32412;51.478;5.694;2022-09-09T11:12:59;11.68;;;3.60;;
46675;SDS011;32412;51.478;5.694;2022-09-09T11:15:41;16.05;;;3.60;;
46675;SDS011;32412;51.478;5.694;2022-09-09T11:18:13;10.07;;;3.30;;
46675;SDS011;32412;51.478;5.694;2022-09-09T11:20:44;13.10;;;3.50;;
46675;SDS011;32412;51.478;5.694;2022-09-09T11:23:17;11.82;;;3.75;;
46675;SDS011;32412;51.478;5.694;2022-09-09T11:25:59;11.15;;;4.13;;
46675;SDS011;32412;51.478;5.694;2022-09-09T11:31:08;7.40;;;2.80;;
46675;SDS011;32412;51.478;5.694;2022-09-09T11:36:33;4.68;;;1.77;;
46675;SDS011;32412;51.478;5.694;2022-09-09T11:41:50;4.22;;;1.98;;
46675;SDS011;32412;51.478;5.694;2022-09-09T11:44:21;5.43;;;2.28;;
46675;SDS011;32412;51.478;5.694;2022-09-09T11:46:54;4.10;;;2.10;;
46675;SDS011;32412;51.478;5.694;2022-09-09T11:49:27;5.32;;;2.10;;
46675;SDS011;32412;51.478;5.694;2022-09-09T11:51:56;7.95;;;3.00;;
46675;SDS011;32412;51.478;5.694;2022-09-09T11:56:58;3.63;;;2.00;;
46675;SDS011;32412;51.478;5.694;2022-09-09T11:59:31;6.65;;;2.25;;
46675;SDS011;32412;51.478;5.694;2022-09-09T12:01:58;6.50;;;2.37;;
46675;SDS011;32412;51.478;5.694;2022-09-09T12:04:39;6.13;;;2.13;;
46675;SDS011;32412;51.478;5.694;2022-09-09T12:10:27;7.65;;;2.40;;
46675;SDS011;32412;51.478;5.694;2022-09-09T12:13:07;8.88;;;2.45;;
46675;SDS011;32412;51.478;5.694;2022-09-09T12:15:46;6.67;;;2.37;;
46675;SDS011;32412;51.478;5.694;2022-09-09T12:18:51;7.20;;;2.50;;
46675;SDS011;32412;51.478;5.694;2022-09-09T12:24:19;5.60;;;2.30;;
46675;SDS011;32412;51.478;5.694;2022-09-09T12:26:56;6.25;;;2.35;;
46675;SDS011;32412;51.478;5.694;2022-09-09T12:32:12;6.85;;;2.38;;
46675;SDS011;32412;51.478;5.694;2022-09-09T12:37:36;7.30;;;2.33;;
46675;SDS011;32412;51.478;5.694;2022-09-09T12:40:24;5.60;;;2.47;;
46675;SDS011;32412;51.478;5.694;2022-09-09T12:42:52;5.32;;;2.10;;
46675;SDS011;32412;51.478;5.694;2022-09-09T12:45:24;6.78;;;2.22;;
46675;SDS011;32412;51.478;5.694;2022-09-09T12:47:55;6.20;;;2.08;;
46675;SDS011;32412;51.478;5.694;2022-09-09T12:50:37;6.32;;;2.17;;
46675;SDS011;32412;51.478;5.694;2022-09-09T12:53:11;7.05;;;2.03;;
46675;SDS011;32412;51.478;5.694;2022-09-09T12:55:51;9.15;;;2.28;;
46675;SDS011;32412;51.478;5.694;2022-09-09T12:58:19;6.07;;;1.45;;
46675;SDS011;32412;51.478;5.694;2022-09-09T13:00:52;3.90;;;1.58;;
46675;SDS011;32412;51.478;5.694;2022-09-09T13:03:21;6.93;;;2.10;;
46675;SDS011;32412;51.478;5.694;2022-09-09T13:05:47;6.03;;;2.05;;
46675;SDS011;32412;51.478;5.694;2022-09-09T13:08:14;4.93;;;1.88;;
46675;SDS011;32412;51.478;5.694;2022-09-09T13:13:14;7.32;;;1.65;;
46675;SDS011;32412;51.478;5.694;2022-09-09T13:15:52;8.45;;;2.40;;
46675;SDS011;32412;51.478;5.694;2022-09-09T13:18:22;3.40;;;2.00;;
46675;SDS011;32412;51.478;5.694;2022-09-09T13:20:50;5.20;;;1.88;;
46675;SDS011;32412;51.478;5.694;2022-09-09T13:23:18;4.47;;;1.40;;
46675;SDS011;32412;51.478;5.694;2022-09-09T13:25:52;3.28;;;1.23;;
46675;SDS011;32412;51.478;5.694;2022-09-09T13:28:21;4.20;;;1.60;;
46675;SDS011;32412;51.478;5.694;2022-09-09T13:30:56;4.25;;;1.60;;
46675;SDS011;32412;51.478;5.694;2022-09-09T13:33:33;3.72;;;1.40;;
46675;SDS011;32412;51.478;5.694;2022-09-09T13:36:04;3.92;;;1.30;;
46675;SDS011;32412;51.478;5.694;2022-09-09T13:38:33;2.83;;;1.15;;
46675;SDS011;32412;51.478;5.694;2022-09-09T13:41:23;4.45;;;1.42;;
46675;SDS011;32412;51.478;5.694;2022-09-09T13:43:50;4.75;;;1.88;;
46675;SDS011;32412;51.478;5.694;2022-09-09T13:46:23;3.50;;;1.30;;
46675;SDS011;32412;51.478;5.694;2022-09-09T13:49:35;6.35;;;1.50;;
46675;SDS011;32412;51.478;5.694;2022-09-09T13:51:43;3.65;;;1.05;;
46675;SDS011;32412;51.478;5.694;2022-09-09T13:54:12;8.15;;;1.42;;
46675;SDS011;32412;51.478;5.694;2022-09-09T13:56:40;5.30;;;1.50;;
46675;SDS011;32412;51.478;5.694;2022-09-09T13:59:09;5.50;;;1.15;;
46675;SDS011;32412;51.478;5.694;2022-09-09T14:01:42;3.28;;;1.50;;
46675;SDS011;32412;51.478;5.694;2022-09-09T14:04:09;4.05;;;1.10;;
46675;SDS011;32412;51.478;5.694;2022-09-09T14:06:35;3.67;;;1.38;;
46675;SDS011;32412;51.478;5.694;2022-09-09T14:09:03;2.92;;;1.30;;
46675;SDS011;32412;51.478;5.694;2022-09-09T14:11:29;7.82;;;2.78;;
46675;SDS011;32412;51.478;5.694;2022-09-09T14:13:55;5.15;;;1.27;;
46675;SDS011;32412;51.478;5.694;2022-09-09T14:16:20;6.72;;;1.50;;
46675;SDS011;32412;51.478;5.694;2022-09-09T14:18:47;4.38;;;1.40;;
46675;SDS011;32412;51.478;5.694;2022-09-09T14:21:13;4.30;;;1.15;;
46675;SDS011;32412;51.478;5.694;2022-09-09T14:23:40;5.53;;;1.90;;
46675;SDS011;32412;51.478;5.694;2022-09-09T14:26:06;4.72;;;1.17;;
46675;SDS011;32412;51.478;5.694;2022-09-09T14:28:33;5.05;;;1.20;;
46675;SDS011;32412;51.478;5.694;2022-09-09T14:31:00;4.63;;;1.23;;
46675;SDS011;32412;51.478;5.694;2022-09-09T14:33:26;7.00;;;1.25;;
46675;SDS011;32412;51.478;5.694;2022-09-09T14:35:56;6.03;;;1.33;;
46675;SDS011;32412;51.478;5.694;2022-09-09T14:38:29;3.67;;;1.00;;
46675;SDS011;32412;51.478;5.694;2022-09-09T14:40:58;3.08;;;1.10;;
46675;SDS011;32412;51.478;5.694;2022-09-09T14:43:24;2.58;;;1.25;;
46675;SDS011;32412;51.478;5.694;2022-09-09T14:45:51;2.63;;;1.00;;
46675;SDS011;32412;51.478;5.694;2022-09-09T14:48:17;2.70;;;1.27;;
46675;SDS011;32412;51.478;5.694;2022-09-09T14:50:43;4.03;;;0.98;;
46675;SDS011;32412;51.478;5.694;2022-09-09T14:53:08;4.88;;;1.23;;
46675;SDS011;32412;51.478;5.694;2022-09-09T14:55:35;4.28;;;1.20;;
46675;SDS011;32412;51.478;5.694;2022-09-09T14:58:01;4.03;;;1.20;;
46675;SDS011;32412;51.478;5.694;2022-09-09T15:00:26;3.28;;;1.05;;
46675;SDS011;32412;51.478;5.694;2022-09-09T15:02:53;4.38;;;1.50;;
46675;SDS011;32412;51.478;5.694;2022-09-09T15:05:19;4.47;;;1.35;;
46675;SDS011;32412;51.478;5.694;2022-09-09T15:07:45;5.15;;;1.30;;
46675;SDS011;32412;51.478;5.694;2022-09-09T15:10:13;2.28;;;1.02;;
46675;SDS011;32412;51.478;5.694;2022-09-09T15:12:39;3.63;;;1.20;;
46675;SDS011;32412;51.478;5.694;2022-09-09T15:15:06;5.93;;;1.80;;
46675;SDS011;32412;51.478;5.694;2022-09-09T15:17:33;6.55;;;1.10;;
46675;SDS011;32412;51.478;5.694;2022-09-09T15:20:00;4.38;;;1.30;;
46675;SDS011;32412;51.478;5.694;2022-09-09T15:22:26;4.18;;;1.30;;
46675;SDS011;32412;51.478;5.694;2022-09-09T15:24:51;4.32;;;1.40;;
46675;SDS011;32412;51.478;5.694;2022-09-09T15:27:17;2.78;;;1.45;;
46675;SDS011;32412;51.478;5.694;2022-09-09T15:29:43;3.88;;;1.55;;
46675;SDS011;32412;51.478;5.694;2022-09-09T15:32:09;5.18;;;1.50;;
46675;SDS011;32412;51.478;5.694;2022-09-09T15:34:35;3.58;;;1.40;;
46675;SDS011;32412;51.478;5.694;2022-09-09T15:37:03;4.75;;;1.13;;
46675;SDS011;32412;51.478;5.694;2022-09-09T15:39:28;3.58;;;1.30;;
46675;SDS011;32412;51.478;5.694;2022-09-09T15:41:54;3.08;;;1.00;;
46675;SDS011;32412;51.478;5.694;2022-09-09T15:44:20;3.55;;;1.38;;
46675;SDS011;32412;51.478;5.694;2022-09-09T15:46:48;6.97;;;1.70;;
46675;SDS011;32412;51.478;5.694;2022-09-09T15:49:20;3.58;;;1.20;;
46675;SDS011;32412;51.478;5.694;2022-09-09T15:51:51;3.10;;;1.15;;
46675;SDS011;32412;51.478;5.694;2022-09-09T15:54:19;2.42;;;0.93;;
46675;SDS011;32412;51.478;5.694;2022-09-09T15:56:50;3.40;;;1.23;;
46675;SDS011;32412;51.478;5.694;2022-09-09T15:59:20;3.15;;;1.08;;
46675;SDS011;32412;51.478;5.694;2022-09-09T16:01:46;4.50;;;1.30;;
46675;SDS011;32412;51.478;5.694;2022-09-09T16:04:11;1.77;;;0.90;;
46675;SDS011;32412;51.478;5.694;2022-09-09T16:06:37;3.83;;;1.13;;
46675;SDS011;32412;51.478;5.694;2022-09-09T16:09:04;4.50;;;1.10;;
46675;SDS011;32412;51.478;5.694;2022-09-09T16:11:39;4.32;;;1.50;;
46675;SDS011;32412;51.478;5.694;2022-09-09T16:14:05;3.63;;;1.23;;
46675;SDS011;32412;51.478;5.694;2022-09-09T16:16:31;4.18;;;1.25;;
46675;SDS011;32412;51.478;5.694;2022-09-09T16:19:03;4.13;;;1.50;;
46675;SDS011;32412;51.478;5.694;2022-09-09T16:21:35;5.03;;;2.10;;
46675;SDS011;32412;51.478;5.694;2022-09-09T16:24:04;3.60;;;1.65;;
46675;SDS011;32412;51.478;5.694;2022-09-09T16:26:31;5.72;;;1.70;;
46675;SDS011;32412;51.478;5.694;2022-09-09T16:29:02;2.75;;;1.20;;
46675;SDS011;32412;51.478;5.694;2022-09-09T16:31:42;2.15;;;1.00;;
46675;SDS011;32412;51.478;5.694;2022-09-09T16:34:09;3.25;;;0.80;;
46675;SDS011;32412;51.478;5.694;2022-09-09T16:36:35;1.60;;;1.30;;
46675;SDS011;32412;51.478;5.694;2022-09-09T16:39:07;1.85;;;0.85;;
46675;SDS011;32412;51.478;5.694;2022-09-09T16:41:34;2.15;;;1.00;;
46675;SDS011;32412;51.478;5.694;2022-09-09T16:44:01;3.13;;;0.93;;
46675;SDS011;32412;51.478;5.694;2022-09-09T16:46:33;3.42;;;1.02;;
46675;SDS011;32412;51.478;5.694;2022-09-09T16:49:01;6.43;;;2.28;;
46675;SDS011;32412;51.478;5.694;2022-09-09T16:51:41;5.15;;;1.88;;
46675;SDS011;32412;51.478;5.694;2022-09-09T16:54:09;3.22;;;2.00;;
46675;SDS011;32412;51.478;5.694;2022-09-09T16:56:37;6.80;;;2.90;;
46675;SDS011;32412;51.478;5.694;2022-09-09T16:59:05;11.68;;;3.80;;
46675;SDS011;32412;51.478;5.694;2022-09-09T17:01:34;11.05;;;4.20;;
46675;SDS011;32412;51.478;5.694;2022-09-09T17:04:09;12.48;;;2.38;;
46675;SDS011;32412;51.478;5.694;2022-09-09T17:06:38;12.00;;;2.30;;
46675;SDS011;32412;51.478;5.694;2022-09-09T17:09:08;5.25;;;2.17;;
46675;SDS011;32412;51.478;5.694;2022-09-09T17:11:35;4.97;;;2.15;;
46675;SDS011;32412;51.478;5.694;2022-09-09T17:14:02;2.63;;;2.10;;
46675;SDS011;32412;51.478;5.694;2022-09-09T17:16:29;7.70;;;3.45;;
46675;SDS011;32412;51.478;5.694;2022-09-09T17:18:59;6.97;;;3.10;;
46675;SDS011;32412;51.478;5.694;2022-09-09T17:21:26;5.20;;;2.72;;